createdAt,value
2022-08-19T00:00:48.603Z,24.10
2022-08-19T00:02:53.281Z,24.20
2022-08-19T00:04:57.869Z,24.20
2022-08-19T00:07:04.699Z,24.30
2022-08-19T00:09:11.277Z,24.40
2022-08-19T00:11:18.646Z,24.30
2022-08-19T00:13:30.317Z,24.30
2022-08-19T00:15:34.985Z,24.40
2022-08-19T00:17:41.990Z,24.40
2022-08-19T00:19:46.907Z,24.30
2022-08-19T00:21:51.332Z,24.40
2022-08-19T00:23:59.311Z,24.20
2022-08-19T00:26:04.670Z,24.20
2022-08-19T00:28:09.218Z,24.20
2022-08-19T00:30:14.732Z,24.20
2022-08-19T00:32:19.424Z,24.30
2022-08-19T00:34:24.751Z,24.30
2022-08-19T00:36:29.716Z,24.20
2022-08-19T00:38:37.289Z,24.20
2022-08-19T00:40:47.551Z,24.30
2022-08-19T00:42:55.020Z,24.30
2022-08-19T00:44:59.829Z,24.30
2022-08-19T00:47:05.082Z,24.40
2022-08-19T00:49:22.026Z,24.40
2022-08-19T00:51:27.781Z,24.40
2022-08-19T00:53:35.485Z,24.40
2022-08-19T00:55:41.435Z,24.40
2022-08-19T00:57:51.567Z,24.50
2022-08-19T01:00:02.449Z,24.40
2022-08-19T01:02:10.545Z,24.40
2022-08-19T01:04:15.487Z,24.50
2022-08-19T01:06:20.826Z,24.40
2022-08-19T01:08:25.694Z,24.40
2022-08-19T01:10:36.815Z,24.20
2022-08-19T01:12:41.927Z,24.20
2022-08-19T01:14:49.081Z,24.10
2022-08-19T01:16:55.809Z,24.10
2022-08-19T01:19:00.334Z,24.10
2022-08-19T01:21:10.062Z,24.10
2022-08-19T01:23:17.454Z,24.00
2022-08-19T01:25:26.557Z,24.00
2022-08-19T01:27:43.725Z,24.00
2022-08-19T01:29:49.089Z,24.00
2022-08-19T01:31:54.735Z,23.90
2022-08-19T01:34:00.587Z,23.90
2022-08-19T01:36:11.103Z,23.90
2022-08-19T01:38:27.226Z,24.00
2022-08-19T01:40:35.030Z,24.00
2022-08-19T01:42:39.477Z,24.00
2022-08-19T01:44:43.929Z,24.00
2022-08-19T01:46:50.489Z,24.00
2022-08-19T01:48:54.932Z,24.00
2022-08-19T01:50:59.428Z,24.10
2022-08-19T01:53:06.837Z,24.10
2022-08-19T01:55:18.858Z,24.10
2022-08-19T01:57:23.376Z,24.00
2022-08-19T01:59:27.939Z,24.10
2022-08-19T02:01:33.709Z,24.20
2022-08-19T02:03:38.424Z,24.20
2022-08-19T02:05:43.958Z,24.00
2022-08-19T02:07:49.050Z,23.70
2022-08-19T02:09:53.756Z,23.70
2022-08-19T02:11:59.765Z,23.60
2022-08-19T02:14:07.836Z,23.50
2022-08-19T02:16:13.650Z,23.50
2022-08-19T02:18:18.557Z,23.40
2022-08-19T02:20:23.675Z,23.40
2022-08-19T02:22:28.558Z,23.40
2022-08-19T02:24:33.157Z,23.40
2022-08-19T02:26:37.815Z,23.50
2022-08-19T02:28:45.143Z,23.60
2022-08-19T02:30:49.987Z,23.60
2022-08-19T02:32:54.619Z,23.60
2022-08-19T02:34:59.066Z,23.70
2022-08-19T02:37:04.039Z,23.70
2022-08-19T02:39:07.661Z,23.50
2022-08-19T02:41:16.324Z,23.40
2022-08-19T02:43:22.699Z,23.20
2022-08-19T02:45:29.499Z,23.10
2022-08-19T02:47:34.597Z,23.10
2022-08-19T02:49:39.211Z,23.20
2022-08-19T02:51:45.671Z,23.10
2022-08-19T02:53:50.357Z,23.00
2022-08-19T02:55:55.470Z,22.90
2022-08-19T02:58:00.960Z,23.00
2022-08-19T03:00:09.477Z,23.00
2022-08-19T03:02:16.624Z,22.90
2022-08-19T03:04:21.699Z,22.90
2022-08-19T03:06:26.710Z,22.90
2022-08-19T03:08:31.186Z,22.70
2022-08-19T03:10:35.820Z,22.70
2022-08-19T03:12:41.143Z,22.70
2022-08-19T03:14:50.951Z,22.60
2022-08-19T03:16:56.198Z,22.70
2022-08-19T03:19:02.584Z,22.80
2022-08-19T03:21:19.078Z,22.80
2022-08-19T03:23:24.254Z,22.80
2022-08-19T03:25:28.924Z,22.70
2022-08-19T03:27:34.430Z,22.60
2022-08-19T03:29:43.109Z,22.40
2022-08-19T03:31:51.190Z,22.40
2022-08-19T03:33:57.338Z,22.40
2022-08-19T03:36:13.319Z,22.50
2022-08-19T03:38:17.894Z,22.60
2022-08-19T03:40:27.125Z,22.60
2022-08-19T03:42:48.527Z,22.80
2022-08-19T03:44:53.943Z,22.80
2022-08-19T03:47:01.511Z,22.80
2022-08-19T03:49:08.683Z,23.00
2022-08-19T03:51:31.053Z,23.20
2022-08-19T03:53:37.844Z,23.40
2022-08-19T03:55:43.392Z,23.50
2022-08-19T03:57:49.754Z,23.70
2022-08-19T03:59:54.195Z,23.90
2022-08-19T04:02:12.179Z,24.10
2022-08-19T04:04:16.680Z,24.40
2022-08-19T04:06:28.275Z,24.60
2022-08-19T04:08:32.749Z,24.90
2022-08-19T04:10:38.745Z,25.00
2022-08-19T04:12:43.824Z,25.20
2022-08-19T04:14:48.261Z,25.60
2022-08-19T04:16:53.947Z,25.90
2022-08-19T04:19:01.979Z,25.90
2022-08-19T04:21:07.858Z,26.10
2022-08-19T04:23:13.936Z,26.30
2022-08-19T04:25:18.797Z,26.50
2022-08-19T04:27:23.725Z,26.70
2022-08-19T04:29:28.661Z,26.80
2022-08-19T04:31:36.828Z,26.90
2022-08-19T04:33:41.809Z,27.30
2022-08-19T04:35:49.477Z,27.70
2022-08-19T04:37:53.989Z,28.10
2022-08-19T04:40:17.214Z,28.50
2022-08-19T04:42:38.987Z,28.60
2022-08-19T04:44:46.403Z,29.00
2022-08-19T04:46:52.918Z,29.00
2022-08-19T04:48:58.003Z,29.00
2022-08-19T04:51:02.585Z,29.30
2022-08-19T04:53:06.977Z,29.50
2022-08-19T04:55:15.467Z,29.70
2022-08-19T04:57:19.900Z,30.00
2022-08-19T04:59:24.487Z,30.20
2022-08-19T05:01:31.159Z,30.60
2022-08-19T05:03:36.193Z,30.80
2022-08-19T05:05:44.708Z,31.00
2022-08-19T05:07:49.601Z,31.20
2022-08-19T05:09:58.013Z,31.30
2022-08-19T05:12:06.893Z,31.50
2022-08-19T05:14:13.537Z,31.70
2022-08-19T05:16:20.116Z,31.90
2022-08-19T05:18:41.837Z,32.10
2022-08-19T05:21:03.719Z,32.30
2022-08-19T05:23:20.641Z,32.10
2022-08-19T05:25:26.811Z,31.90
2022-08-19T05:27:33.358Z,32.10
2022-08-19T05:29:37.877Z,32.40
2022-08-19T05:31:43.147Z,32.60
2022-08-19T05:33:47.676Z,32.70
2022-08-19T05:35:52.527Z,32.80
2022-08-19T05:37:59.023Z,32.90
2022-08-19T05:40:04.153Z,33.00
2022-08-19T05:42:12.108Z,33.20
2022-08-19T05:44:19.626Z,33.00
2022-08-19T05:46:27.762Z,33.10
2022-08-19T05:48:32.758Z,33.50
2022-08-19T05:50:38.743Z,33.70
2022-08-19T05:52:43.793Z,34.00
2022-08-19T05:54:56.881Z,34.20
2022-08-19T05:57:03.123Z,34.30
2022-08-19T05:59:10.132Z,34.10
2022-08-19T06:01:18.506Z,34.20
2022-08-19T06:03:23.189Z,34.60
2022-08-19T06:05:28.026Z,34.80
2022-08-19T06:07:32.742Z,34.90
2022-08-19T06:09:38.405Z,34.90
2022-08-19T06:11:46.057Z,35.00
2022-08-19T06:13:59.415Z,35.20
2022-08-19T06:16:05.785Z,35.10
2022-08-19T06:18:12.875Z,35.00
2022-08-19T06:20:34.389Z,35.30
2022-08-19T06:22:45.107Z,35.30
2022-08-19T06:24:53.730Z,35.60
2022-08-19T06:27:01.614Z,35.30
2022-08-19T06:29:07.637Z,35.30
2022-08-19T06:31:15.035Z,35.10
2022-08-19T06:33:20.701Z,35.00
2022-08-19T06:35:26.458Z,35.00
2022-08-19T06:37:30.938Z,34.90
2022-08-19T06:39:42.589Z,35.20
2022-08-19T06:41:52.517Z,35.40
2022-08-19T06:43:59.460Z,35.30
2022-08-19T06:46:04.732Z,35.50
2022-08-19T06:48:11.681Z,35.60
2022-08-19T06:50:17.491Z,35.70
2022-08-19T06:52:24.784Z,36.00
2022-08-19T06:54:31.078Z,35.80
2022-08-19T06:56:35.839Z,36.10
2022-08-19T06:58:40.194Z,36.10
2022-08-19T07:00:44.759Z,35.90
2022-08-19T07:02:53.414Z,36.20
2022-08-19T07:05:03.602Z,36.40
2022-08-19T07:07:19.968Z,36.10
2022-08-19T07:09:25.280Z,35.90
2022-08-19T07:11:30.065Z,35.90
2022-08-19T07:13:37.512Z,35.70
2022-08-19T07:15:41.692Z,35.90
2022-08-19T07:17:52.496Z,36.10
2022-08-19T07:19:57.404Z,36.20
2022-08-19T07:22:04.202Z,35.80
2022-08-19T07:24:10.586Z,36.20
2022-08-19T07:26:16.929Z,36.20
2022-08-19T07:28:24.182Z,36.50
2022-08-19T07:30:29.383Z,36.50
2022-08-19T07:32:36.402Z,36.00
2022-08-19T07:34:44.007Z,36.00
2022-08-19T07:36:48.532Z,36.00
2022-08-19T07:38:55.910Z,36.20
2022-08-19T07:41:02.838Z,36.40
2022-08-19T07:43:08.539Z,36.10
2022-08-19T07:45:18.972Z,36.40
2022-08-19T07:47:49.490Z,36.20
2022-08-19T07:49:48.491Z,36.30
2022-08-19T07:51:56.992Z,36.70
2022-08-19T07:54:38.986Z,37.00
2022-08-19T07:56:45.645Z,37.50
2022-08-19T07:58:52.824Z,37.20
2022-08-19T08:00:57.500Z,36.60
2022-08-19T08:03:02.071Z,36.20
2022-08-19T08:05:50.214Z,36.30
2022-08-19T08:08:12.280Z,36.60
2022-08-19T08:10:21.199Z,36.60
2022-08-19T08:12:34.582Z,36.20
2022-08-19T08:14:47.155Z,36.40
2022-08-19T08:16:53.701Z,36.70
2022-08-19T08:19:01.022Z,36.90
2022-08-19T08:21:07.071Z,36.30
2022-08-19T08:23:27.469Z,36.30
2022-08-19T08:25:34.243Z,36.20
2022-08-19T08:27:42.321Z,36.20
2022-08-19T08:29:47.780Z,36.10
2022-08-19T08:31:58.440Z,36.40
2022-08-19T08:34:07.373Z,36.50
2022-08-19T08:36:12.748Z,36.20
2022-08-19T08:38:18.937Z,36.00
2022-08-19T08:40:28.757Z,36.20
2022-08-19T08:42:39.454Z,36.30
2022-08-19T08:47:00.496Z,36.40
2022-08-19T08:49:09.989Z,36.20
2022-08-19T08:51:34.462Z,35.50
2022-08-19T08:53:42.026Z,35.00
2022-08-19T08:55:48.516Z,35.20
2022-08-19T08:58:01.017Z,35.10
2022-08-19T09:00:15.672Z,34.80
2022-08-19T09:02:21.381Z,34.90
2022-08-19T09:04:25.858Z,35.40
2022-08-19T09:06:40.850Z,36.00
2022-08-19T09:08:56.872Z,36.30
2022-08-19T09:18:03.860Z,37.10
2022-08-19T09:28:27.111Z,37.40
2022-08-19T09:31:34.436Z,36.90
2022-08-19T09:34:24.056Z,36.80
2022-08-19T09:46:58.192Z,37.20
2022-08-19T09:50:24.533Z,37.50
2022-08-19T09:53:26.189Z,37.40
2022-08-19T09:56:58.281Z,37.20
2022-08-19T10:00:38.625Z,37.20
2022-08-19T10:03:55.685Z,36.80
2022-08-19T10:07:20.958Z,36.20
2022-08-19T11:39:39.355Z,36.60
2022-08-19T12:38:32.251Z,37.30
2022-08-19T12:53:25.788Z,35.50
2022-08-19T12:56:57.211Z,35.40
2022-08-19T13:00:27.744Z,35.50
2022-08-19T13:07:40.555Z,35.30
2022-08-19T13:10:23.410Z,35.50
2022-08-19T13:13:32.576Z,35.70
2022-08-19T13:16:38.811Z,35.80
2022-08-19T13:20:26.819Z,36.00
2022-08-19T13:24:14.603Z,36.30
2022-08-19T13:27:00.212Z,36.50
2022-08-19T13:34:11.589Z,36.10
2022-08-19T13:42:06.181Z,36.10
2022-08-19T13:51:15.019Z,35.90
2022-08-19T14:26:03.506Z,35.90
2022-08-19T14:29:41.072Z,36.00
2022-08-19T14:34:24.007Z,36.30
2022-08-19T14:53:28.246Z,35.90
2022-08-19T15:31:53.460Z,35.30
2022-08-19T15:36:04.575Z,35.60
2022-08-19T15:44:57.834Z,35.70
2022-08-19T15:47:46.122Z,35.20
2022-08-19T15:50:31.980Z,35.20
2022-08-19T15:53:45.390Z,35.10
2022-08-19T15:56:41.879Z,35.10
2022-08-19T16:00:11.570Z,34.90
2022-08-19T16:05:52.177Z,35.00
2022-08-19T16:08:55.996Z,35.00
2022-08-19T16:12:21.618Z,34.60
2022-08-19T16:22:48.399Z,33.50
2022-08-19T16:25:49.340Z,33.40
2022-08-19T16:28:06.986Z,33.30
2022-08-19T16:30:19.115Z,33.30
2022-08-19T16:32:23.840Z,33.30
2022-08-19T16:34:28.096Z,33.10
2022-08-19T16:36:33.459Z,33.00
2022-08-19T16:38:38.381Z,33.00
2022-08-19T16:40:46.659Z,32.90
2022-08-19T16:42:52.467Z,32.80
2022-08-19T16:44:58.471Z,32.70
2022-08-19T16:47:04.880Z,32.70
2022-08-19T16:49:10.716Z,32.70
2022-08-19T16:51:16.736Z,32.60
2022-08-19T16:53:23.609Z,32.50
2022-08-19T16:55:36.693Z,32.40
2022-08-19T16:57:41.643Z,32.40
2022-08-19T16:59:48.707Z,32.50
2022-08-19T17:02:08.665Z,32.40
2022-08-19T17:04:20.417Z,32.30
2022-08-19T17:06:27.471Z,32.30
2022-08-19T17:08:34.547Z,32.20
2022-08-19T17:10:39.482Z,32.00
2022-08-19T17:12:46.414Z,32.00
2022-08-19T17:14:51.114Z,31.90
2022-08-19T17:16:57.082Z,31.80
2022-08-19T17:19:05.218Z,31.80
2022-08-19T17:21:14.746Z,31.80
2022-08-19T17:23:19.561Z,31.80
2022-08-19T17:25:36.013Z,31.70
2022-08-19T17:27:42.164Z,31.40
2022-08-19T17:29:47.236Z,31.30
2022-08-19T17:31:51.870Z,31.30
2022-08-19T17:33:59.064Z,31.20
2022-08-19T17:36:06.542Z,31.10
2022-08-19T17:38:13.913Z,31.00
2022-08-19T17:40:23.832Z,31.00
2022-08-19T17:42:32.157Z,30.90
2022-08-19T17:44:40.952Z,30.90
2022-08-19T17:46:46.862Z,30.90
2022-08-19T17:48:58.694Z,30.80
2022-08-19T17:51:16.314Z,30.80
2022-08-19T17:53:21.211Z,30.60
2022-08-19T17:55:26.313Z,30.60
2022-08-19T17:57:31.966Z,30.50
2022-08-19T17:59:37.692Z,30.40
2022-08-19T18:01:52.041Z,30.50
2022-08-19T18:03:59.016Z,30.40
2022-08-19T18:06:04.969Z,30.40
2022-08-19T18:08:12.948Z,30.30
2022-08-19T18:10:19.103Z,30.20
2022-08-19T18:12:26.927Z,30.20
2022-08-19T18:14:36.043Z,30.30
2022-08-19T18:16:40.954Z,30.30
2022-08-19T18:18:46.226Z,30.40
2022-08-19T18:20:50.793Z,30.30
2022-08-19T18:22:57.361Z,30.20
2022-08-19T18:25:04.878Z,30.10
2022-08-19T18:27:10.302Z,30.20
2022-08-19T18:29:20.016Z,30.10
2022-08-19T18:31:24.985Z,30.20
2022-08-19T18:33:29.960Z,30.10
2022-08-19T18:35:36.950Z,30.10
2022-08-19T18:37:41.709Z,30.10
2022-08-19T18:40:05.734Z,30.10
2022-08-19T18:42:32.708Z,30.00
2022-08-19T18:44:59.267Z,30.00
2022-08-19T18:47:21.888Z,29.90
2022-08-19T18:49:32.193Z,29.90
2022-08-19T18:51:36.858Z,29.90
2022-08-19T18:53:43.071Z,29.80
2022-08-19T18:55:55.497Z,29.90
2022-08-19T18:58:03.359Z,30.00
2022-08-19T19:00:09.546Z,30.00
2022-08-19T19:02:15.195Z,29.90
2022-08-19T19:04:22.316Z,29.90
2022-08-19T19:06:30.004Z,29.80
2022-08-19T19:08:35.071Z,29.90
2022-08-19T19:10:41.240Z,29.80
2022-08-19T19:12:48.502Z,29.60
2022-08-19T19:14:52.995Z,29.50
2022-08-19T19:16:57.879Z,29.50
2022-08-19T19:19:02.457Z,29.50
2022-08-19T19:21:08.105Z,29.50
2022-08-19T19:23:12.659Z,29.50
2022-08-19T19:25:20.086Z,29.60
2022-08-19T19:27:29.374Z,29.60
2022-08-19T19:29:37.081Z,29.60
2022-08-19T19:31:43.852Z,29.70
2022-08-19T19:33:48.348Z,29.60
2022-08-19T19:35:53.194Z,29.50
2022-08-19T19:37:57.968Z,29.40
2022-08-19T19:40:02.757Z,29.20
2022-08-19T19:42:12.500Z,29.30
2022-08-19T19:44:32.496Z,29.30
2022-08-19T19:46:40.753Z,29.20
2022-08-19T19:48:46.516Z,29.30
2022-08-19T19:50:56.130Z,29.20
2022-08-19T19:53:00.985Z,29.00
2022-08-19T19:55:06.492Z,28.90
2022-08-19T19:57:11.366Z,29.00
2022-08-19T19:59:16.899Z,29.00
2022-08-19T20:01:27.361Z,28.90
2022-08-19T20:03:33.846Z,28.80
2022-08-19T20:05:38.751Z,28.70
2022-08-19T20:08:00.315Z,28.70
2022-08-19T20:10:05.202Z,28.70
2022-08-19T20:12:12.138Z,28.70
2022-08-19T20:14:19.651Z,28.60
2022-08-19T20:16:25.839Z,28.60
2022-08-19T20:18:31.813Z,28.60
2022-08-19T20:20:37.756Z,28.60
2022-08-19T20:22:44.081Z,28.60
2022-08-19T20:24:48.621Z,28.70
2022-08-19T20:26:54.375Z,28.70
2022-08-19T20:29:13.874Z,28.70
2022-08-19T20:31:30.066Z,28.80
2022-08-19T20:33:40.623Z,28.60
2022-08-19T20:35:46.914Z,28.70
2022-08-19T20:37:57.987Z,28.70
2022-08-19T20:40:03.138Z,28.60
2022-08-19T20:42:07.902Z,28.60
2022-08-19T20:44:12.724Z,28.50
2022-08-19T20:46:17.611Z,28.50
2022-08-19T20:48:22.348Z,28.50
2022-08-19T20:50:30.369Z,28.40
2022-08-19T20:52:38.607Z,28.30
2022-08-19T20:54:43.399Z,28.30
2022-08-19T20:56:48.171Z,28.20
2022-08-19T20:58:59.369Z,28.20
2022-08-19T21:01:05.896Z,28.20
2022-08-19T21:03:10.394Z,28.30
2022-08-19T21:05:15.468Z,28.30
2022-08-19T21:07:20.026Z,28.30
2022-08-19T21:09:26.428Z,28.20
2022-08-19T21:11:31.289Z,28.20
2022-08-19T21:13:36.321Z,28.30
2022-08-19T21:15:43.472Z,28.30
2022-08-19T21:17:52.023Z,28.30
2022-08-19T21:19:58.685Z,28.40
2022-08-19T21:22:03.183Z,28.40
2022-08-19T21:24:10.780Z,28.40
2022-08-19T21:26:18.583Z,28.50
2022-08-19T21:28:34.425Z,28.50
2022-08-19T21:30:42.437Z,28.50
2022-08-19T21:32:52.282Z,28.50
2022-08-19T21:34:57.401Z,28.60
2022-08-19T21:37:02.255Z,28.60
2022-08-19T21:39:07.382Z,28.60
2022-08-19T21:41:11.769Z,28.60
2022-08-19T21:43:18.341Z,28.60
2022-08-19T21:45:23.173Z,28.60
2022-08-19T21:47:27.922Z,28.70
2022-08-19T21:49:34.125Z,28.60
2022-08-19T21:51:38.688Z,28.50
2022-08-19T21:53:43.606Z,28.50
2022-08-19T21:55:53.425Z,28.50
2022-08-19T21:58:00.214Z,28.60
2022-08-19T22:00:09.660Z,28.40
2022-08-19T22:02:20.533Z,28.30
2022-08-19T22:04:25.601Z,28.20
2022-08-19T22:06:31.047Z,28.10
2022-08-19T22:08:35.743Z,28.00
2022-08-19T22:10:40.443Z,27.90
2022-08-19T22:12:46.080Z,27.70
2022-08-19T22:14:58.638Z,27.60
2022-08-19T22:17:05.857Z,27.40
2022-08-19T22:19:10.341Z,27.20
2022-08-19T22:21:15.470Z,27.20
2022-08-19T22:23:29.527Z,27.10
2022-08-19T22:25:37.248Z,27.10
2022-08-19T22:27:42.575Z,27.00
2022-08-19T22:29:47.543Z,26.90
2022-08-19T22:31:58.304Z,26.80
2022-08-19T22:34:05.191Z,26.70
2022-08-19T22:36:10.532Z,26.60
2022-08-19T22:38:16.514Z,26.50
2022-08-19T22:40:21.924Z,26.40
2022-08-19T22:42:31.856Z,26.40
2022-08-19T22:44:37.716Z,26.40
2022-08-19T22:46:43.058Z,26.40
2022-08-19T22:48:56.676Z,26.30
2022-08-19T22:51:25.315Z,26.30
2022-08-19T22:53:31.934Z,26.30
2022-08-19T22:55:37.595Z,26.30
2022-08-19T22:57:42.004Z,26.20
2022-08-19T22:59:46.640Z,26.20
2022-08-19T23:01:51.045Z,26.10
2022-08-19T23:03:56.681Z,26.10
2022-08-19T23:06:01.538Z,26.00
2022-08-19T23:08:07.758Z,25.90
2022-08-19T23:10:12.584Z,25.90
2022-08-19T23:12:17.694Z,25.90
2022-08-19T23:14:23.444Z,26.00
2022-08-19T23:16:28.985Z,26.00
2022-08-19T23:18:33.930Z,26.10
2022-08-19T23:20:41.099Z,26.10
2022-08-19T23:22:48.028Z,26.30
2022-08-19T23:24:55.974Z,26.30
2022-08-19T23:27:18.119Z,26.40
2022-08-19T23:29:40.166Z,26.40
2022-08-19T23:31:44.956Z,26.50
2022-08-19T23:33:51.888Z,26.60
2022-08-19T23:35:59.972Z,26.60
2022-08-19T23:38:05.099Z,26.70
2022-08-19T23:40:12.546Z,26.70
2022-08-19T23:42:17.077Z,26.70
2022-08-19T23:44:22.102Z,26.70
2022-08-19T23:46:28.214Z,26.70
2022-08-19T23:48:34.489Z,26.70
2022-08-19T23:50:42.123Z,26.80
2022-08-19T23:52:48.740Z,26.80
2022-08-19T23:54:53.122Z,26.80
2022-08-19T23:56:59.200Z,26.80
2022-08-19T23:59:03.755Z,26.80
